Time;durP1;ratioP1;P1;durP2;ratioP2;P2;SDS_P1;SDS_P2;PMS_P1;PMS_P2;Temp;Humidity;BMP_temperature;BMP_pressure;BME280_temperature;BME280_humidity;BME280_pressure;Samples;Min_cycle;Max_cycle;Signal;HPM_P1;HPM_P2
2022/11/09 00:01:17;;;;;;;2.20;2.00;;;19.00;66.00;20.20;99932.00;;;;5027930;28;20616;-49
2022/11/09 00:03:43;;;;;;;2.43;1.80;;;19.00;66.00;20.20;99922.00;;;;5028178;28;20189;-49
2022/11/09 00:06:09;;;;;;;1.83;1.70;;;19.00;66.10;20.20;99914.00;;;;5028080;28;20167;-50
2022/11/09 00:08:37;;;;;;;1.90;1.80;;;19.00;66.10;20.20;99922.00;;;;5028947;28;20168;-48
2022/11/09 00:11:07;;;;;;;1.80;1.70;;;19.00;66.10;20.20;99914.00;;;;5028119;28;20719;-51
2022/11/09 00:13:38;;;;;;;2.00;1.80;;;19.00;66.10;20.20;99911.00;;;;5027650;28;20188;-49
2022/11/09 00:16:05;;;;;;;2.00;1.90;;;19.00;66.10;20.20;99920.00;;;;5027474;28;20531;-50
2022/11/09 00:18:31;;;;;;;1.90;1.80;;;19.00;66.20;20.20;99920.00;;;;5010076;28;20183;-50
2022/11/09 00:20:57;;;;;;;1.80;1.70;;;18.90;66.10;20.20;99915.00;;;;5027617;28;20170;-50
2022/11/09 00:23:22;;;;;;;2.20;2.00;;;18.90;66.20;20.20;99919.00;;;;5027458;28;20189;-50
2022/11/09 00:25:48;;;;;;;1.83;1.73;;;18.90;66.20;20.20;99924.00;;;;5028923;28;20217;-49
2022/11/09 00:28:14;;;;;;;1.80;1.70;;;18.90;66.30;20.20;99924.00;;;;5014677;28;20606;-50
2022/11/09 00:30:40;;;;;;;2.10;1.90;;;18.90;66.30;20.20;99920.00;;;;5031946;28;20250;-49
2022/11/09 00:33:07;;;;;;;2.40;1.90;;;19.00;66.40;20.20;99926.00;;;;5031694;28;20206;-49
2022/11/09 00:35:33;;;;;;;1.90;1.70;;;19.00;66.40;20.10;99923.00;;;;5031912;28;20207;-49
2022/11/09 00:37:58;;;;;;;1.77;1.60;;;18.90;66.40;20.10;99916.00;;;;5031479;28;20231;-49
2022/11/09 00:40:24;;;;;;;2.97;1.83;;;18.90;66.40;20.10;99913.00;;;;5031392;28;20236;-48
2022/11/09 00:42:50;;;;;;;2.00;1.80;;;18.90;66.40;20.10;99914.00;;;;5031219;28;20183;-49
2022/11/09 00:45:16;;;;;;;1.70;1.60;;;18.90;66.50;20.10;99917.00;;;;5031418;28;20198;-49
2022/11/09 00:47:42;;;;;;;1.77;1.67;;;18.90;66.40;20.10;99919.00;;;;5031657;28;20234;-49
2022/11/09 00:50:08;;;;;;;1.80;1.70;;;18.90;66.40;20.10;99913.00;;;;5014037;28;20265;-49
2022/11/09 00:52:34;;;;;;;2.03;1.83;;;18.90;66.40;20.10;99914.00;;;;5031127;28;20286;-50
2022/11/09 00:55:00;;;;;;;1.83;1.67;;;18.90;66.50;20.10;99916.00;;;;5030943;28;20238;-50
2022/11/09 00:57:25;;;;;;;2.30;1.70;;;18.90;66.50;20.10;99911.00;;;;5031246;28;20222;-49
2022/11/09 00:59:52;;;;;;;1.80;1.70;;;18.90;66.60;20.10;99915.00;;;;5030829;28;20171;-49
2022/11/09 01:02:18;;;;;;;1.93;1.80;;;18.90;66.60;20.10;99905.00;;;;5031089;28;20179;-49
2022/11/09 01:04:44;;;;;;;2.00;1.80;;;18.90;66.60;20.00;99905.00;;;;5031210;28;20282;-50
2022/11/09 01:07:09;;;;;;;2.13;1.93;;;18.90;66.70;20.10;99905.00;;;;5031159;28;20171;-49
2022/11/09 01:09:35;;;;;;;1.70;1.60;;;18.90;66.70;20.00;99900.00;;;;5031075;28;20182;-50
2022/11/09 01:12:01;;;;;;;1.70;1.60;;;18.80;66.60;20.00;99906.00;;;;5030811;28;20557;-49
2022/11/09 01:14:27;;;;;;;1.83;1.73;;;18.80;66.60;20.00;99920.00;;;;5031241;28;20245;-50
2022/11/09 01:16:52;;;;;;;1.87;1.77;;;18.80;66.60;20.00;99923.00;;;;5030897;28;20187;-49
2022/11/09 01:19:18;;;;;;;1.93;1.73;;;18.80;66.80;20.00;99918.00;;;;5030921;28;20228;-49
2022/11/09 01:21:44;;;;;;;1.70;1.60;;;18.80;66.80;20.00;99922.00;;;;5032191;28;20163;-50
2022/11/09 01:24:09;;;;;;;1.60;1.50;;;18.80;66.80;20.00;99924.00;;;;5032255;28;20718;-49
2022/11/09 01:26:35;;;;;;;1.90;1.80;;;18.80;66.80;20.00;99915.00;;;;5013243;28;20675;-49
2022/11/09 01:29:01;;;;;;;1.77;1.63;;;18.80;66.90;20.00;99920.00;;;;5030836;28;20172;-48
2022/11/09 01:31:27;;;;;;;2.40;1.80;;;18.80;66.90;20.00;99918.00;;;;5030214;28;20294;-48
2022/11/09 01:33:52;;;;;;;1.90;1.80;;;18.80;66.90;20.00;99933.00;;;;5030479;28;20195;-49
2022/11/09 01:36:22;;;;;;;1.83;1.63;;;18.70;67.00;20.00;99921.00;;;;5030246;28;20175;-49
2022/11/09 01:38:48;;;;;;;1.80;1.70;;;18.70;66.80;19.90;99929.00;;;;5013623;28;20177;-49
2022/11/09 01:41:18;;;;;;;1.73;1.63;;;18.80;66.90;19.90;99932.00;;;;5030178;28;20680;-51
2022/11/09 01:43:45;;;;;;;1.77;1.67;;;18.80;67.00;20.00;99946.00;;;;5030668;28;20705;-49
2022/11/09 01:46:17;;;;;;;1.70;1.50;;;18.80;67.00;19.90;99938.00;;;;5031223;28;20199;-49
2022/11/09 01:48:57;;;;;;;1.87;1.67;;;18.80;67.00;19.90;99913.00;;;;5013541;28;20159;-50
2022/11/09 01:51:29;;;;;;;1.80;1.70;;;18.80;67.00;19.90;99927.00;;;;5012700;28;20160;-49
2022/11/09 01:54:09;;;;;;;2.07;1.80;;;18.80;67.00;19.90;99913.00;;;;5012452;28;20269;-49
2022/11/09 01:56:35;;;;;;;1.70;1.60;;;18.70;67.00;19.90;99925.00;;;;5012685;28;20273;-49
2022/11/09 01:59:27;;;;;;;1.70;1.60;;;18.70;67.00;19.90;99922.00;;;;5012822;28;20254;-48
2022/11/09 02:01:53;;;;;;;1.87;1.70;;;18.70;67.10;19.90;99930.00;;;;5029624;28;20277;-49
2022/11/09 02:04:25;;;;;;;1.83;1.63;;;18.70;67.10;19.90;99931.00;;;;5012327;28;20322;-50
2022/11/09 02:06:51;;;;;;;1.93;1.83;;;18.70;67.10;19.90;99929.00;;;;5012393;28;20207;-50
2022/11/09 02:09:39;;;;;;;1.80;1.70;;;18.70;67.10;19.90;99925.00;;;;5012148;28;20183;-49
2022/11/09 02:12:06;;;;;;;1.80;1.70;;;18.70;67.10;19.90;99927.00;;;;5011909;28;20234;-49
2022/11/09 02:14:32;;;;;;;1.97;1.77;;;18.70;67.20;19.80;99924.00;;;;5029815;28;20214;-49
2022/11/09 02:16:57;;;;;;;1.80;1.70;;;18.70;67.20;19.80;99917.00;;;;5012156;28;20195;-50
2022/11/09 02:19:23;;;;;;;1.70;1.60;;;18.70;67.20;19.80;99913.00;;;;5012158;28;20268;-49
2022/11/09 02:21:49;;;;;;;1.80;1.70;;;18.70;67.20;19.80;99925.00;;;;5029415;28;20292;-49
2022/11/09 02:24:15;;;;;;;1.50;1.40;;;18.70;67.20;19.80;99925.00;;;;5029574;28;20241;-49
2022/11/09 02:26:49;;;;;;;1.80;1.70;;;18.70;67.20;19.80;99936.00;;;;5029382;28;20544;-49
2022/11/09 02:29:27;;;;;;;1.70;1.60;;;18.70;67.30;19.80;99922.00;;;;5012552;28;20210;-49
2022/11/09 02:32:02;;;;;;;2.00;1.80;;;18.70;67.40;19.80;99922.00;;;;5012908;28;20420;-49
2022/11/09 02:34:28;;;;;;;1.57;1.47;;;18.70;67.40;19.80;99916.00;;;;4996420;28;20268;-49
2022/11/09 02:36:54;;;;;;;1.70;1.60;;;18.70;67.40;19.80;99929.00;;;;5032201;28;20195;-49
2022/11/09 02:39:22;;;;;;;1.60;1.50;;;18.60;67.20;19.80;99918.00;;;;5030487;28;20167;-49
2022/11/09 02:42:01;;;;;;;1.60;1.50;;;18.70;67.40;19.80;99901.00;;;;4996003;28;20203;-49
2022/11/09 02:44:27;;;;;;;1.73;1.63;;;18.60;67.40;19.80;99917.00;;;;5012003;28;20248;-49
2022/11/09 02:46:53;;;;;;;1.80;1.70;;;18.60;67.40;19.80;99924.00;;;;5011359;28;20185;-49
2022/11/09 02:49:18;;;;;;;1.90;1.80;;;18.60;67.40;19.80;99915.00;;;;5028395;28;20533;-49
2022/11/09 02:51:44;;;;;;;1.50;1.40;;;18.60;67.40;19.80;99915.00;;;;5028708;28;20225;-50
2022/11/09 02:54:10;;;;;;;1.57;1.47;;;18.60;67.40;19.80;99920.00;;;;5028952;28;20202;-50
2022/11/09 02:56:35;;;;;;;1.80;1.70;;;18.60;67.50;19.80;99926.00;;;;5028884;28;20194;-49
2022/11/09 02:59:02;;;;;;;1.93;1.70;;;18.60;67.50;19.80;99919.00;;;;5028971;28;20524;-49
2022/11/09 03:01:28;;;;;;;1.70;1.60;;;18.60;67.50;19.80;99920.00;;;;5028627;28;20190;-49
2022/11/09 03:03:54;;;;;;;1.60;1.50;;;18.60;67.50;19.80;99924.00;;;;5029003;28;20210;-50
2022/11/09 03:06:19;;;;;;;1.60;1.50;;;18.50;67.40;19.80;99930.00;;;;5028946;28;20222;-49
2022/11/09 03:08:45;;;;;;;1.73;1.63;;;18.60;67.50;19.80;99928.00;;;;5028838;28;20250;-50
2022/11/09 03:11:11;;;;;;;1.70;1.60;;;18.60;67.60;19.70;99927.00;;;;5028550;28;20204;-49
2022/11/09 03:13:36;;;;;;;1.63;1.53;;;18.60;67.70;19.70;99922.00;;;;5028617;28;20195;-49
2022/11/09 03:16:05;;;;;;;1.40;1.30;;;18.60;67.70;19.70;99929.00;;;;5028718;28;20171;-49
2022/11/09 03:18:30;;;;;;;1.60;1.50;;;18.60;67.70;19.70;99930.00;;;;5028430;28;20207;-48
2022/11/09 03:21:01;;;;;;;1.90;1.80;;;18.60;67.80;19.70;99929.00;;;;5028722;28;20182;-50
2022/11/09 03:23:28;;;;;;;1.83;1.60;;;18.50;67.60;19.70;99930.00;;;;5029511;28;20233;-49
2022/11/09 03:25:53;;;;;;;1.60;1.50;;;18.60;67.80;19.70;99922.00;;;;5030473;28;20202;-48
2022/11/09 03:28:19;;;;;;;1.80;1.70;;;18.50;67.70;19.70;99922.00;;;;5029682;28;20189;-50
2022/11/09 03:30:45;;;;;;;1.70;1.60;;;18.50;67.60;19.70;99928.00;;;;5029056;28;20663;-50
2022/11/09 03:33:13;;;;;;;1.63;1.53;;;18.50;67.70;19.70;99927.00;;;;5028343;28;20183;-49
2022/11/09 03:35:39;;;;;;;1.40;1.30;;;18.50;67.60;19.70;99930.00;;;;5011357;28;20298;-49
2022/11/09 03:38:04;;;;;;;1.80;1.70;;;18.50;67.70;19.70;99926.00;;;;5028389;28;20654;-49
2022/11/09 03:40:30;;;;;;;1.57;1.47;;;18.50;67.80;19.70;99927.00;;;;5028470;28;20174;-50
2022/11/09 03:42:56;;;;;;;1.50;1.40;;;18.50;67.70;19.70;99935.00;;;;5027922;28;20276;-49
2022/11/09 03:45:22;;;;;;;2.10;1.50;;;18.50;67.80;19.70;99939.00;;;;5028239;28;20174;-50
2022/11/09 03:47:47;;;;;;;1.70;1.60;;;18.50;67.80;19.70;99940.00;;;;5010521;28;20781;-49
2022/11/09 03:50:14;;;;;;;1.30;1.30;;;18.60;67.90;19.70;99937.00;;;;5029328;28;20194;-48
2022/11/09 03:52:44;;;;;;;1.50;1.43;;;18.50;67.80;19.70;99940.00;;;;5029569;28;20173;-49
2022/11/09 03:55:10;;;;;;;1.70;1.60;;;18.50;67.80;19.70;99943.00;;;;5028138;28;20183;-50
2022/11/09 03:57:36;;;;;;;1.70;1.60;;;18.50;67.80;19.70;99941.00;;;;5028090;28;20203;-49
2022/11/09 04:00:02;;;;;;;1.73;1.63;;;18.50;67.80;19.70;99939.00;;;;5027745;28;20167;-49
2022/11/09 04:02:28;;;;;;;1.57;1.47;;;18.50;67.80;19.60;99942.00;;;;5027490;28;20224;-49
2022/11/09 04:04:54;;;;;;;1.80;1.70;;;18.50;67.80;19.70;99945.00;;;;5027750;28;20167;-48
2022/11/09 04:07:19;;;;;;;1.20;1.20;;;18.50;67.80;19.60;99941.00;;;;5027890;28;20179;-50
2022/11/09 04:09:45;;;;;;;1.60;1.50;;;18.50;67.80;19.70;99945.00;;;;5028303;28;20745;-49
2022/11/09 04:12:11;;;;;;;1.70;1.60;;;18.50;67.80;19.70;99917.00;;;;5010484;28;20202;-49
2022/11/09 04:14:36;;;;;;;1.77;1.57;;;18.50;67.80;19.60;99949.00;;;;5027925;28;20233;-49
2022/11/09 04:17:02;;;;;;;1.60;1.50;;;18.40;67.70;19.70;99949.00;;;;5028008;28;20512;-49
2022/11/09 04:19:28;;;;;;;1.67;1.57;;;18.50;68.60;19.60;99960.00;;;;5028001;28;20167;-49
2022/11/09 04:21:54;;;;;;;1.70;1.60;;;18.50;67.80;19.60;99965.00;;;;5010030;28;20326;-50
2022/11/09 04:24:19;;;;;;;1.40;1.37;;;18.50;67.80;19.60;99956.00;;;;5027513;28;20191;-50
2022/11/09 04:26:46;;;;;;;1.60;1.50;;;18.50;67.80;19.60;99961.00;;;;5028008;28;20622;-50
2022/11/09 04:29:12;;;;;;;2.77;1.80;;;18.50;67.80;19.60;99962.00;;;;5027742;28;20167;-49
2022/11/09 04:31:38;;;;;;;7.17;1.80;;;18.50;67.80;19.60;99958.00;;;;5027228;28;20546;-50
2022/11/09 04:34:03;;;;;;;7.40;1.90;;;18.50;68.50;19.60;99964.00;;;;5027581;28;20194;-49
2022/11/09 04:36:29;;;;;;;7.10;2.00;;;18.40;67.80;19.60;99965.00;;;;5028106;28;20662;-48
2022/11/09 04:38:55;;;;;;;11.53;1.70;;;18.50;67.90;19.60;99951.00;;;;5027710;28;20171;-50
2022/11/09 04:41:21;;;;;;;5.00;1.77;;;18.40;67.90;19.60;99949.00;;;;5027649;28;20172;-48
2022/11/09 04:43:46;;;;;;;3.33;1.80;;;18.50;67.90;19.60;99957.00;;;;5027502;28;20187;-48
2022/11/09 04:46:12;;;;;;;4.97;1.80;;;18.50;67.90;19.60;99965.00;;;;5027759;28;20679;-49
2022/11/09 04:48:38;;;;;;;2.30;1.70;;;18.40;67.80;19.60;99938.00;;;;5028539;28;20197;-49
2022/11/09 04:51:06;;;;;;;3.87;1.63;;;18.40;67.70;19.60;99948.00;;;;5028693;28;20798;-49
2022/11/09 04:53:33;;;;;;;2.17;1.70;;;18.40;67.70;19.60;99946.00;;;;5010134;28;20237;-49
2022/11/09 04:55:59;;;;;;;2.73;1.70;;;18.40;67.70;19.60;99952.00;;;;5028074;28;20213;-49
2022/11/09 04:58:24;;;;;;;3.53;1.80;;;18.40;67.70;19.60;99955.00;;;;5010764;28;20231;-49
2022/11/09 05:00:50;;;;;;;3.53;1.90;;;18.40;67.70;19.60;99970.00;;;;5028480;28;20171;-49
2022/11/09 05:03:16;;;;;;;3.37;1.60;;;18.40;67.70;19.60;99970.00;;;;5010805;28;20195;-49
2022/11/09 05:05:42;;;;;;;2.90;1.67;;;18.40;67.70;19.60;99969.00;;;;5029908;28;20462;-49
2022/11/09 05:08:08;;;;;;;2.00;1.60;;;18.30;67.60;19.60;99969.00;;;;5027354;28;20174;-49
2022/11/09 05:10:38;;;;;;;3.93;1.67;;;18.40;67.70;19.60;99975.00;;;;5003480;28;20657;-49
2022/11/09 05:13:10;;;;;;;1.90;1.70;;;18.40;67.70;19.50;99974.00;;;;4976723;28;20644;-49
2022/11/09 05:15:36;;;;;;;2.83;1.80;;;18.30;67.60;19.50;99981.00;;;;5011622;28;20199;-50
2022/11/09 05:18:05;;;;;;;1.63;1.53;;;18.40;67.70;19.50;99973.00;;;;4994326;28;20210;-50
2022/11/09 05:20:31;;;;;;;2.87;1.70;;;18.40;67.70;19.50;99990.00;;;;4994627;28;20164;-48
2022/11/09 05:25:43;;;;;;;2.90;1.87;;;18.30;67.60;19.50;99993.00;;;;5011467;28;20655;-49
2022/11/09 05:28:09;;;;;;;2.23;1.70;;;18.30;67.60;19.50;99988.00;;;;5013882;28;20833;-49
2022/11/09 05:30:35;;;;;;;2.40;1.90;;;18.30;67.60;19.50;100005.00;;;;5014108;28;20168;-50
2022/11/09 05:33:01;;;;;;;3.97;1.77;;;18.30;67.60;19.50;99990.00;;;;5011250;28;20201;-49
2022/11/09 05:35:30;;;;;;;2.53;1.63;;;18.30;67.60;19.50;99998.00;;;;5011437;28;20259;-49
2022/11/09 05:37:56;;;;;;;2.30;1.87;;;18.30;67.60;19.50;99996.00;;;;5010782;28;20950;-48
2022/11/09 05:40:21;;;;;;;2.73;1.73;;;18.30;67.60;19.50;99993.00;;;;5009219;28;20173;-48
2022/11/09 05:42:47;;;;;;;1.67;1.50;;;18.30;67.60;19.50;99999.00;;;;5009826;28;20191;-48
2022/11/09 05:45:15;;;;;;;2.60;1.70;;;18.30;67.60;19.50;99997.00;;;;5011493;28;20241;-48
2022/11/09 05:47:42;;;;;;;2.83;1.80;;;18.30;67.60;19.50;99989.00;;;;4993833;28;20219;-47
2022/11/09 05:50:10;;;;;;;3.30;1.60;;;18.30;67.60;19.40;99989.00;;;;5011274;28;20156;-48
2022/11/09 05:52:36;;;;;;;4.17;1.50;;;18.30;68.40;19.40;99979.00;;;;5010882;28;20184;-49
2022/11/09 05:55:02;;;;;;;5.10;1.80;;;18.30;67.60;19.40;99974.00;;;;5010005;28;20187;-48
2022/11/09 05:57:28;;;;;;;7.53;1.83;;;18.20;67.60;19.40;99970.00;;;;5011151;28;20740;-48
2022/11/09 05:59:54;;;;;;;4.50;1.87;;;18.30;67.80;19.40;99901.00;;;;4993471;28;20721;-48
2022/11/09 06:02:19;;;;;;;3.37;1.60;;;18.30;67.80;19.40;99981.00;;;;5010859;28;20294;-48
2022/11/09 06:04:45;;;;;;;3.77;1.77;;;18.30;67.70;19.40;99988.00;;;;5010975;28;20191;-47
2022/11/09 06:07:11;;;;;;;7.17;2.00;;;18.30;67.80;19.40;99996.00;;;;5011677;28;20167;-48
2022/11/09 06:09:36;;;;;;;3.73;1.63;;;18.30;67.80;19.40;100001.00;;;;5011046;28;20179;-48
2022/11/09 06:12:02;;;;;;;4.07;1.80;;;18.30;67.90;19.40;99986.00;;;;5010406;28;20218;-48
2022/11/09 06:14:28;;;;;;;4.10;1.97;;;18.30;67.80;19.40;99981.00;;;;5011013;28;20306;-48
2022/11/09 06:16:54;;;;;;;2.23;1.90;;;18.30;67.80;19.40;99997.00;;;;5010952;28;20219;-48
2022/11/09 06:19:19;;;;;;;2.83;1.80;;;18.30;67.80;19.40;99936.00;;;;4993615;28;20756;-48
2022/11/09 06:21:45;;;;;;;2.47;1.77;;;18.30;67.80;19.40;100000.00;;;;5010025;28;20172;-48
2022/11/09 06:24:11;;;;;;;3.37;1.70;;;18.20;67.70;19.40;99986.00;;;;5008926;28;20192;-48
2022/11/09 06:26:37;;;;;;;2.37;1.87;;;18.20;67.80;19.40;99989.00;;;;5011540;28;20215;-48
2022/11/09 06:29:02;;;;;;;2.43;1.80;;;18.20;67.90;19.40;99992.00;;;;5011597;28;20546;-48
2022/11/09 06:31:28;;;;;;;3.83;1.87;;;18.30;68.00;19.40;100004.00;;;;4992808;28;20176;-48
2022/11/09 06:33:54;;;;;;;3.97;1.73;;;18.30;68.10;19.40;99998.00;;;;5009970;28;20187;-47
2022/11/09 06:36:20;;;;;;;3.80;1.93;;;18.20;68.00;19.40;99993.00;;;;5010236;28;20616;-47
2022/11/09 06:38:52;;;;;;;2.67;1.63;;;18.30;68.20;19.40;99989.00;;;;5010193;28;20211;-47
2022/11/09 06:41:17;;;;;;;3.03;1.70;;;18.20;68.10;19.40;99997.00;;;;5009873;28;20620;-47
2022/11/09 06:43:43;;;;;;;3.23;1.70;;;18.20;68.10;19.40;99995.00;;;;5009667;28;20219;-48
2022/11/09 06:46:16;;;;;;;3.53;1.60;;;18.20;68.20;19.40;99996.00;;;;5010030;28;20174;-49
2022/11/09 06:48:42;;;;;;;4.20;1.70;;;18.20;68.20;19.40;99998.00;;;;4993391;28;20171;-48
2022/11/09 06:51:08;;;;;;;3.13;1.90;;;18.20;68.20;19.40;100004.00;;;;4983239;28;20172;-48
2022/11/09 06:53:36;;;;;;;3.07;1.60;;;18.20;68.00;19.40;100017.00;;;;4931386;28;20791;-49
2022/11/09 06:56:03;;;;;;;3.33;1.70;;;18.20;68.20;19.40;100012.00;;;;5008296;28;20198;-48
2022/11/09 06:58:29;;;;;;;2.90;1.90;;;18.20;68.40;19.40;100009.00;;;;5009600;28;20204;-49
2022/11/09 07:00:55;;;;;;;19.27;2.37;;;18.20;68.50;19.40;100011.00;;;;4991216;28;20191;-49
2022/11/09 07:03:21;;;;;;;7.00;2.17;;;18.20;69.00;19.40;100021.00;;;;5008778;28;20687;-49
2022/11/09 07:05:48;;;;;;;7.20;2.07;;;18.20;68.90;19.40;100031.00;;;;5009220;28;20635;-48
2022/11/09 07:08:13;;;;;;;7.67;2.10;;;18.10;68.90;19.40;100040.00;;;;4992077;28;20175;-46
2022/11/09 07:10:39;;;;;;;6.90;2.13;;;18.20;69.00;19.40;100038.00;;;;5009560;28;20186;-47
2022/11/09 07:13:05;;;;;;;5.00;2.00;;;18.20;68.90;19.40;100033.00;;;;5009171;28;20812;-46
2022/11/09 07:15:31;;;;;;;6.57;1.90;;;18.20;68.90;19.40;100034.00;;;;5009574;28;20263;-47
2022/11/09 07:17:58;;;;;;;5.10;1.90;;;18.20;68.90;19.30;100042.00;;;;5008232;28;20686;-46
2022/11/09 07:20:25;;;;;;;7.90;2.00;;;18.20;68.90;19.30;100045.00;;;;5008787;28;20259;-47
2022/11/09 07:22:50;;;;;;;9.60;2.23;;;18.20;68.80;19.40;100029.00;;;;4990008;28;20198;-47
2022/11/09 07:25:16;;;;;;;16.17;2.30;;;18.20;68.90;19.30;100044.00;;;;4989768;28;20175;-46
2022/11/09 07:27:42;;;;;;;5.63;1.90;;;18.20;69.00;19.30;100040.00;;;;5007929;28;20183;-46
2022/11/09 07:30:08;;;;;;;8.73;2.20;;;18.20;69.00;19.30;100043.00;;;;5007765;28;20645;-47
2022/11/09 07:32:35;;;;;;;11.50;2.50;;;18.20;69.00;19.30;100047.00;;;;5009541;28;20179;-47
2022/11/09 07:35:01;;;;;;;11.67;4.57;;;18.10;69.10;19.30;100052.00;;;;5008942;28;20167;-46
2022/11/09 07:37:26;;;;;;;18.57;5.13;;;18.10;69.20;19.30;100048.00;;;;5009513;28;20215;-46
2022/11/09 07:39:52;;;;;;;11.57;4.90;;;18.20;69.30;19.30;100053.00;;;;5009097;28;20214;-47
2022/11/09 07:42:18;;;;;;;17.03;5.00;;;18.10;69.20;19.30;100054.00;;;;5008060;28;20186;-46
2022/11/09 07:44:44;;;;;;;10.90;4.53;;;18.20;69.30;19.30;100056.00;;;;5009849;28;20253;-48
2022/11/09 07:47:10;;;;;;;15.53;4.87;;;18.10;69.20;19.30;100055.00;;;;5012566;28;20175;-46
2022/11/09 07:49:36;;;;;;;14.10;4.93;;;18.20;69.20;19.30;100053.00;;;;4992770;28;20690;-47
2022/11/09 07:52:02;;;;;;;10.77;4.70;;;18.10;69.30;19.30;100060.00;;;;4957812;28;20168;-46
2022/11/09 07:54:27;;;;;;;13.40;4.87;;;18.10;69.20;19.30;100057.00;;;;5008646;28;20215;-46
2022/11/09 07:56:53;;;;;;;12.33;4.73;;;18.10;69.20;19.30;100066.00;;;;5008700;28;20397;-47
2022/11/09 07:59:19;;;;;;;13.60;4.50;;;18.10;69.20;19.30;100060.00;;;;5009215;28;20694;-46
2022/11/09 08:01:45;;;;;;;17.50;5.37;;;18.10;69.10;19.30;100062.00;;;;5008700;28;20263;-46
2022/11/09 08:04:11;;;;;;;17.63;4.97;;;18.10;69.10;19.30;100058.00;;;;5008064;28;20191;-47
2022/11/09 08:06:36;;;;;;;18.23;5.10;;;18.10;69.20;19.30;100063.00;;;;5009583;28;20821;-45
2022/11/09 08:09:02;;;;;;;13.20;4.97;;;18.10;69.10;19.20;100075.00;;;;5011395;28;20178;-48
2022/11/09 08:11:28;;;;;;;12.87;4.50;;;18.10;69.00;19.20;100069.00;;;;5028732;28;20178;-46
2022/11/09 08:13:54;;;;;;;18.27;4.80;;;18.10;69.10;19.20;100075.00;;;;5028967;28;20218;-46
2022/11/09 08:16:21;;;;;;;12.67;4.60;;;18.10;69.00;19.20;100074.00;;;;5028527;28;20216;-48
2022/11/09 08:18:49;;;;;;;12.13;4.70;;;18.10;69.00;19.20;100073.00;;;;5028044;28;20259;-45
2022/11/09 08:21:15;;;;;;;9.57;4.67;;;18.10;69.00;19.20;100074.00;;;;5028960;28;20175;-46
2022/11/09 08:23:41;;;;;;;11.70;4.27;;;18.10;69.00;19.20;100082.00;;;;5028553;28;20187;-47
2022/11/09 08:26:06;;;;;;;15.13;4.73;;;18.00;68.90;19.20;100091.00;;;;5028982;28;20171;-47
2022/11/09 08:28:33;;;;;;;13.00;4.80;;;18.00;68.90;19.20;100086.00;;;;5028799;28;20183;-47
2022/11/09 08:31:02;;;;;;;11.77;4.43;;;18.10;69.00;19.20;100095.00;;;;5028572;28;20520;-47
2022/11/09 08:33:30;;;;;;;11.77;4.50;;;18.00;68.80;19.20;100091.00;;;;5028434;28;20807;-48
2022/11/09 08:35:56;;;;;;;10.87;4.60;;;18.00;68.90;19.20;100089.00;;;;5028266;28;20171;-47
2022/11/09 08:38:21;;;;;;;12.87;4.80;;;18.10;68.90;19.20;100091.00;;;;5028369;28;20286;-47
2022/11/09 08:40:47;;;;;;;10.87;4.23;;;18.10;68.90;19.20;100098.00;;;;5028605;28;20206;-47
2022/11/09 08:43:13;;;;;;;10.67;4.40;;;18.10;68.80;19.20;100093.00;;;;5028083;28;20201;-48
2022/11/09 08:45:39;;;;;;;11.10;4.30;;;18.10;68.80;19.20;100107.00;;;;5028527;28;20202;-46
2022/11/09 08:48:05;;;;;;;8.70;3.83;;;18.10;68.80;19.20;100097.00;;;;5031849;28;20639;-47
2022/11/09 08:50:32;;;;;;;9.47;4.50;;;18.00;68.70;19.20;100099.00;;;;5032351;28;20171;-47
2022/11/09 08:52:58;;;;;;;9.10;4.30;;;18.10;68.80;19.20;100111.00;;;;5031981;28;20219;-47
2022/11/09 08:55:24;;;;;;;11.43;4.50;;;18.00;68.70;19.20;100104.00;;;;5014542;28;20183;-47
2022/11/09 08:57:53;;;;;;;11.03;4.23;;;18.00;68.60;19.20;100110.00;;;;5032430;28;20718;-47
2022/11/09 09:00:19;;;;;;;7.20;3.80;;;18.00;68.70;19.20;100107.00;;;;5032451;28;20171;-46
2022/11/09 09:02:45;;;;;;;7.63;4.23;;;18.10;69.00;19.20;100102.00;;;;5032034;28;20529;-46
2022/11/09 09:05:10;;;;;;;11.33;4.23;;;18.00;68.70;19.20;100109.00;;;;5032766;28;20198;-47
2022/11/09 09:07:36;;;;;;;8.37;3.90;;;18.10;68.70;19.20;100101.00;;;;5034695;28;20194;-47
2022/11/09 09:10:03;;;;;;;8.00;3.90;;;18.00;68.60;19.20;100101.00;;;;5034290;28;20205;-46
2022/11/09 09:12:30;;;;;;;9.80;4.00;;;18.10;68.80;19.20;100111.00;;;;5031726;28;20175;-46
2022/11/09 09:14:55;;;;;;;7.03;3.63;;;18.10;68.90;19.20;100103.00;;;;5014370;28;20674;-47
2022/11/09 09:17:21;;;;;;;7.50;3.73;;;18.10;68.80;19.20;100099.00;;;;5031721;28;20194;-46
2022/11/09 09:19:47;;;;;;;7.13;3.70;;;18.20;68.80;19.20;100095.00;;;;5031494;28;20174;-46
2022/11/09 09:22:12;;;;;;;9.43;3.77;;;18.30;68.80;19.30;100112.00;;;;5013706;28;20202;-46
2022/11/09 09:24:38;;;;;;;7.87;3.97;;;18.30;68.60;19.30;100101.00;;;;5031137;28;20574;-46
2022/11/09 09:27:04;;;;;;;8.23;3.80;;;18.40;68.60;19.30;100100.00;;;;5031466;28;20206;-47
2022/11/09 09:29:30;;;;;;;7.83;4.13;;;18.40;68.40;19.40;100096.00;;;;5031497;28;20258;-46
2022/11/09 09:31:56;;;;;;;7.47;3.77;;;18.50;68.40;19.40;100099.00;;;;5031239;28;20180;-47
2022/11/09 09:34:21;;;;;;;7.67;4.00;;;18.50;68.50;19.40;100108.00;;;;5031463;28;20466;-46
2022/11/09 09:36:47;;;;;;;6.90;3.67;;;18.50;68.60;19.50;100115.00;;;;5031174;28;20183;-45
2022/11/09 09:39:13;;;;;;;7.47;3.50;;;18.50;68.50;19.50;100106.00;;;;5033674;28;20173;-47
2022/11/09 09:41:45;;;;;;;6.17;3.73;;;18.50;68.60;19.50;100110.00;;;;5031465;28;20670;-47
2022/11/09 09:44:36;;;;;;;5.70;3.30;;;18.60;68.70;19.50;100122.00;;;;5013781;28;20187;-46
2022/11/09 09:47:38;;;;;;;6.30;3.20;;;18.60;68.60;19.60;100122.00;;;;5014366;28;20249;-46
2022/11/09 09:50:10;;;;;;;7.93;3.40;;;18.70;68.70;19.60;100122.00;;;;5017828;28;20170;-46
2022/11/09 09:52:44;;;;;;;7.07;3.70;;;18.70;68.70;19.60;100136.00;;;;5013752;28;20636;-46
2022/11/09 09:55:26;;;;;;;5.60;3.10;;;18.70;68.60;19.60;100137.00;;;;5013883;28;20403;-46
2022/11/09 09:58:01;;;;;;;6.40;3.50;;;18.70;68.70;19.60;100141.00;;;;5013680;28;20191;-46
2022/11/09 10:00:27;;;;;;;7.27;3.33;;;18.70;68.80;19.60;100155.00;;;;4997517;28;20162;-47
2022/11/09 10:02:53;;;;;;;5.40;3.10;;;18.70;68.80;19.70;100153.00;;;;5012968;28;20575;-47
2022/11/09 10:05:20;;;;;;;6.23;3.27;;;18.70;68.80;19.70;100153.00;;;;5013538;28;20171;-46
2022/11/09 10:08:12;;;;;;;4.97;3.00;;;18.70;68.80;19.70;100162.00;;;;5013387;28;20178;-47
2022/11/09 10:10:44;;;;;;;4.90;3.00;;;18.70;68.80;19.70;100162.00;;;;5013167;28;20512;-47
2022/11/09 10:13:47;;;;;;;6.13;3.40;;;18.80;69.00;19.70;100160.00;;;;5013574;28;20566;-47
2022/11/09 10:16:30;;;;;;;8.07;3.37;;;18.70;68.90;19.70;100161.00;;;;5014244;28;20162;-47
2022/11/09 10:18:59;;;;;;;6.27;3.60;;;18.70;69.00;19.60;100171.00;;;;5030847;28;20198;-46
2022/11/09 10:21:45;;;;;;;5.33;3.30;;;18.70;69.00;19.70;100163.00;;;;5030226;28;20198;-47
2022/11/09 10:24:24;;;;;;;7.33;3.30;;;18.70;69.10;19.70;100164.00;;;;4996883;28;20222;-47
2022/11/09 10:26:53;;;;;;;5.67;3.13;;;18.70;69.10;19.70;100160.00;;;;5014003;28;20555;-47
2022/11/09 10:29:42;;;;;;;5.30;3.23;;;18.70;69.20;19.70;100155.00;;;;5014394;28;20167;-47
2022/11/09 10:32:16;;;;;;;5.63;3.30;;;18.70;69.20;19.70;100166.00;;;;5012413;28;20203;-47
2022/11/09 10:34:54;;;;;;;4.97;3.13;;;18.70;69.20;19.70;100174.00;;;;5030178;28;20191;-47
2022/11/09 10:37:21;;;;;;;4.67;2.87;;;18.70;69.20;19.70;100168.00;;;;5030882;28;20191;-47
2022/11/09 10:40:02;;;;;;;4.53;2.83;;;18.70;69.40;19.70;100164.00;;;;5012837;28;20175;-47
2022/11/09 10:42:29;;;;;;;5.97;3.07;;;18.70;69.40;19.70;100180.00;;;;5012817;28;20159;-48
2022/11/09 10:44:54;;;;;;;5.03;2.90;;;18.70;69.40;19.70;100184.00;;;;5030201;28;20178;-47
2022/11/09 10:47:21;;;;;;;4.57;2.90;;;18.70;69.30;19.70;100176.00;;;;5030215;28;20167;-46
2022/11/09 10:50:27;;;;;;;4.10;2.97;;;18.70;69.40;19.70;100179.00;;;;5013029;28;20205;-47
2022/11/09 10:53:17;;;;;;;5.13;3.10;;;18.70;69.40;19.70;100182.00;;;;5003321;28;20209;-47
2022/11/09 10:55:56;;;;;;;5.23;3.00;;;18.70;69.40;19.70;100180.00;;;;4916098;28;20187;-47